sensor_id;sensor_type;location;lat;lon;timestamp;P1;durP1;ratioP1;P2;durP2;ratioP2
48026;SDS011;50714;49.208;5.364;2022-12-15T00:02:56;17.92;;;15.23;;
48026;SDS011;50714;49.208;5.364;2022-12-15T00:13:15;19.67;;;16.65;;
48026;SDS011;50714;49.208;5.364;2022-12-15T00:23:34;27.73;;;20.90;;
48026;SDS011;50714;49.208;5.364;2022-12-15T00:33:53;22.02;;;18.35;;
48026;SDS011;50714;49.208;5.364;2022-12-15T00:44:12;20.70;;;17.05;;
48026;SDS011;50714;49.208;5.364;2022-12-15T00:54:12;20.60;;;17.25;;
48026;SDS011;50714;49.208;5.364;2022-12-15T01:04:31;17.13;;;14.57;;
48026;SDS011;50714;49.208;5.364;2022-12-15T01:14:50;17.08;;;15.18;;
48026;SDS011;50714;49.208;5.364;2022-12-15T01:25:09;20.70;;;17.55;;
48026;SDS011;50714;49.208;5.364;2022-12-15T01:35:10;18.08;;;15.13;;
48026;SDS011;50714;49.208;5.364;2022-12-15T01:55:24;15.45;;;13.85;;
48026;SDS011;50714;49.208;5.364;2022-12-15T02:05:27;18.13;;;14.80;;
48026;SDS011;50714;49.208;5.364;2022-12-15T02:36:17;16.10;;;13.52;;
48026;SDS011;50714;49.208;5.364;2022-12-15T02:57:01;17.33;;;14.52;;
48026;SDS011;50714;49.208;5.364;2022-12-15T03:07:10;15.82;;;14.07;;
48026;SDS011;50714;49.208;5.364;2022-12-15T03:17:10;15.00;;;12.93;;
48026;SDS011;50714;49.208;5.364;2022-12-15T03:27:11;17.83;;;13.50;;
48026;SDS011;50714;49.208;5.364;2022-12-15T03:37:11;17.35;;;14.27;;
48026;SDS011;50714;49.208;5.364;2022-12-15T03:47:11;16.13;;;13.77;;
48026;SDS011;50714;49.208;5.364;2022-12-15T03:57:12;17.10;;;14.73;;
48026;SDS011;50714;49.208;5.364;2022-12-15T04:07:13;19.30;;;16.35;;
48026;SDS011;50714;49.208;5.364;2022-12-15T04:17:14;15.10;;;13.18;;
48026;SDS011;50714;49.208;5.364;2022-12-15T04:27:14;15.80;;;13.68;;
48026;SDS011;50714;49.208;5.364;2022-12-15T04:37:33;17.65;;;14.50;;
48026;SDS011;50714;49.208;5.364;2022-12-15T04:47:52;15.27;;;13.45;;
48026;SDS011;50714;49.208;5.364;2022-12-15T04:58:11;15.40;;;13.65;;
48026;SDS011;50714;49.208;5.364;2022-12-15T05:08:30;21.70;;;18.20;;
48026;SDS011;50714;49.208;5.364;2022-12-15T05:18:49;18.50;;;15.65;;
48026;SDS011;50714;49.208;5.364;2022-12-15T05:29:08;20.13;;;16.52;;
48026;SDS011;50714;49.208;5.364;2022-12-15T05:39:28;19.13;;;15.88;;
48026;SDS011;50714;49.208;5.364;2022-12-15T05:49:28;17.42;;;15.55;;
48026;SDS011;50714;49.208;5.364;2022-12-15T05:59:29;22.05;;;18.15;;
48026;SDS011;50714;49.208;5.364;2022-12-15T06:09:29;21.92;;;17.35;;
48026;SDS011;50714;49.208;5.364;2022-12-15T06:19:29;18.67;;;16.00;;
48026;SDS011;50714;49.208;5.364;2022-12-15T06:29:30;15.27;;;13.40;;
48026;SDS011;50714;49.208;5.364;2022-12-15T06:39:30;18.58;;;16.23;;
48026;SDS011;50714;49.208;5.364;2022-12-15T06:49:30;16.05;;;14.35;;
48026;SDS011;50714;49.208;5.364;2022-12-15T06:59:31;26.27;;;22.00;;
48026;SDS011;50714;49.208;5.364;2022-12-15T07:09:31;18.07;;;14.97;;
48026;SDS011;50714;49.208;5.364;2022-12-15T07:19:32;22.00;;;19.30;;
48026;SDS011;50714;49.208;5.364;2022-12-15T07:29:32;17.67;;;15.05;;
48026;SDS011;50714;49.208;5.364;2022-12-15T07:39:32;18.98;;;15.82;;
48026;SDS011;50714;49.208;5.364;2022-12-15T07:49:33;16.77;;;14.40;;
48026;SDS011;50714;49.208;5.364;2022-12-15T07:59:33;15.57;;;13.55;;
48026;SDS011;50714;49.208;5.364;2022-12-15T08:09:34;17.50;;;15.60;;
48026;SDS011;50714;49.208;5.364;2022-12-15T08:19:34;17.03;;;15.23;;
48026;SDS011;50714;49.208;5.364;2022-12-15T08:29:34;16.25;;;14.55;;
48026;SDS011;50714;49.208;5.364;2022-12-15T08:39:35;13.82;;;12.43;;
48026;SDS011;50714;49.208;5.364;2022-12-15T08:49:35;14.32;;;12.73;;
48026;SDS011;50714;49.208;5.364;2022-12-15T08:59:36;12.93;;;11.43;;
48026;SDS011;50714;49.208;5.364;2022-12-15T09:09:36;13.77;;;11.77;;
48026;SDS011;50714;49.208;5.364;2022-12-15T09:19:37;12.75;;;11.45;;
48026;SDS011;50714;49.208;5.364;2022-12-15T09:29:37;14.80;;;12.57;;
48026;SDS011;50714;49.208;5.364;2022-12-15T09:39:38;13.80;;;12.35;;
48026;SDS011;50714;49.208;5.364;2022-12-15T10:10:03;13.05;;;11.65;;
48026;SDS011;50714;49.208;5.364;2022-12-15T10:20:15;12.23;;;10.88;;
48026;SDS011;50714;49.208;5.364;2022-12-15T10:30:25;11.95;;;10.75;;
48026;SDS011;50714;49.208;5.364;2022-12-15T10:40:45;12.93;;;10.98;;
48026;SDS011;50714;49.208;5.364;2022-12-15T10:50:48;12.57;;;11.18;;
48026;SDS011;50714;49.208;5.364;2022-12-15T11:01:04;12.57;;;11.27;;
48026;SDS011;50714;49.208;5.364;2022-12-15T11:11:30;14.32;;;12.77;;
48026;SDS011;50714;49.208;5.364;2022-12-15T11:21:52;12.52;;;10.82;;
48026;SDS011;50714;49.208;5.364;2022-12-15T11:31:59;13.17;;;10.97;;
48026;SDS011;50714;49.208;5.364;2022-12-15T11:42:41;13.93;;;11.82;;
48026;SDS011;50714;49.208;5.364;2022-12-15T12:03:24;12.48;;;11.15;;
48026;SDS011;50714;49.208;5.364;2022-12-15T12:33:57;15.20;;;11.25;;
48026;SDS011;50714;49.208;5.364;2022-12-15T12:44:48;11.77;;;10.23;;
48026;SDS011;50714;49.208;5.364;2022-12-15T13:04:37;10.35;;;8.80;;
48026;SDS011;50714;49.208;5.364;2022-12-15T13:24:45;7.88;;;6.50;;
48026;SDS011;50714;49.208;5.364;2022-12-15T13:34:46;9.95;;;8.40;;
48026;SDS011;50714;49.208;5.364;2022-12-15T13:44:47;11.15;;;9.70;;
48026;SDS011;50714;49.208;5.364;2022-12-15T13:54:53;10.50;;;8.55;;
48026;SDS011;50714;49.208;5.364;2022-12-15T14:05:14;9.23;;;7.88;;
48026;SDS011;50714;49.208;5.364;2022-12-15T14:15:17;10.73;;;7.60;;
48026;SDS011;50714;49.208;5.364;2022-12-15T14:25:22;8.98;;;7.30;;
48026;SDS011;50714;49.208;5.364;2022-12-15T14:35:24;9.35;;;7.57;;
48026;SDS011;50714;49.208;5.364;2022-12-15T14:45:30;8.10;;;6.53;;
48026;SDS011;50714;49.208;5.364;2022-12-15T14:55:35;8.25;;;6.88;;
48026;SDS011;50714;49.208;5.364;2022-12-15T15:05:39;8.97;;;7.57;;
48026;SDS011;50714;49.208;5.364;2022-12-15T15:15:50;10.88;;;9.35;;
48026;SDS011;50714;49.208;5.364;2022-12-15T15:25:54;10.35;;;8.45;;
48026;SDS011;50714;49.208;5.364;2022-12-15T15:35:56;11.07;;;9.63;;
48026;SDS011;50714;49.208;5.364;2022-12-15T15:46:02;12.95;;;10.80;;
48026;SDS011;50714;49.208;5.364;2022-12-15T15:56:05;24.10;;;21.55;;
48026;SDS011;50714;49.208;5.364;2022-12-15T16:06:15;12.95;;;10.95;;
48026;SDS011;50714;49.208;5.364;2022-12-15T16:16:19;12.02;;;9.95;;
48026;SDS011;50714;49.208;5.364;2022-12-15T16:26:26;12.52;;;9.75;;
48026;SDS011;50714;49.208;5.364;2022-12-15T16:36:28;11.57;;;9.10;;
48026;SDS011;50714;49.208;5.364;2022-12-15T16:46:30;10.02;;;8.43;;
48026;SDS011;50714;49.208;5.364;2022-12-15T16:56:31;11.32;;;8.52;;
48026;SDS011;50714;49.208;5.364;2022-12-15T17:06:32;11.95;;;9.60;;
48026;SDS011;50714;49.208;5.364;2022-12-15T17:16:32;11.45;;;9.38;;
48026;SDS011;50714;49.208;5.364;2022-12-15T17:26:34;9.40;;;7.45;;
48026;SDS011;50714;49.208;5.364;2022-12-15T17:36:35;8.60;;;7.18;;
48026;SDS011;50714;49.208;5.364;2022-12-15T17:46:36;8.20;;;6.53;;
48026;SDS011;50714;49.208;5.364;2022-12-15T17:56:37;8.52;;;7.30;;
48026;SDS011;50714;49.208;5.364;2022-12-15T18:06:38;8.00;;;6.10;;
48026;SDS011;50714;49.208;5.364;2022-12-15T18:16:40;7.18;;;5.22;;
48026;SDS011;50714;49.208;5.364;2022-12-15T18:26:41;6.28;;;5.00;;
48026;SDS011;50714;49.208;5.364;2022-12-15T18:36:42;6.10;;;4.45;;
48026;SDS011;50714;49.208;5.364;2022-12-15T18:46:42;5.95;;;4.63;;
48026;SDS011;50714;49.208;5.364;2022-12-15T18:56:44;6.15;;;4.57;;
48026;SDS011;50714;49.208;5.364;2022-12-15T19:06:44;8.20;;;5.63;;
48026;SDS011;50714;49.208;5.364;2022-12-15T19:16:45;8.27;;;6.00;;
48026;SDS011;50714;49.208;5.364;2022-12-15T19:27:07;7.38;;;5.20;;
48026;SDS011;50714;49.208;5.364;2022-12-15T19:37:11;7.00;;;4.72;;
48026;SDS011;50714;49.208;5.364;2022-12-15T19:47:17;5.95;;;4.13;;
48026;SDS011;50714;49.208;5.364;2022-12-15T19:57:18;6.07;;;4.05;;
48026;SDS011;50714;49.208;5.364;2022-12-15T20:07:26;4.63;;;3.60;;
48026;SDS011;50714;49.208;5.364;2022-12-15T20:17:32;5.55;;;4.00;;
48026;SDS011;50714;49.208;5.364;2022-12-15T20:27:32;7.18;;;5.03;;
48026;SDS011;50714;49.208;5.364;2022-12-15T20:37:32;7.07;;;4.38;;
48026;SDS011;50714;49.208;5.364;2022-12-15T20:47:33;5.47;;;4.15;;
48026;SDS011;50714;49.208;5.364;2022-12-15T20:57:34;6.00;;;4.22;;
48026;SDS011;50714;49.208;5.364;2022-12-15T21:07:35;5.97;;;3.72;;
48026;SDS011;50714;49.208;5.364;2022-12-15T21:17:35;5.50;;;3.45;;
48026;SDS011;50714;49.208;5.364;2022-12-15T21:27:36;4.90;;;3.78;;
48026;SDS011;50714;49.208;5.364;2022-12-15T21:37:37;5.20;;;3.85;;
48026;SDS011;50714;49.208;5.364;2022-12-15T21:47:37;7.03;;;3.92;;
48026;SDS011;50714;49.208;5.364;2022-12-15T21:57:56;4.68;;;3.05;;
48026;SDS011;50714;49.208;5.364;2022-12-15T22:07:57;4.22;;;2.83;;
48026;SDS011;50714;49.208;5.364;2022-12-15T22:18:09;3.30;;;2.42;;
48026;SDS011;50714;49.208;5.364;2022-12-15T22:28:30;4.43;;;3.00;;
48026;SDS011;50714;49.208;5.364;2022-12-15T22:38:31;3.95;;;2.55;;
48026;SDS011;50714;49.208;5.364;2022-12-15T22:48:32;4.05;;;2.90;;
48026;SDS011;50714;49.208;5.364;2022-12-15T22:58:36;4.50;;;2.70;;
48026;SDS011;50714;49.208;5.364;2022-12-15T23:08:42;2.37;;;2.10;;
48026;SDS011;50714;49.208;5.364;2022-12-15T23:18:43;2.83;;;2.22;;
48026;SDS011;50714;49.208;5.364;2022-12-15T23:28:43;2.85;;;2.30;;
48026;SDS011;50714;49.208;5.364;2022-12-15T23:38:44;3.22;;;2.35;;
48026;SDS011;50714;49.208;5.364;2022-12-15T23:48:45;2.83;;;2.28;;
48026;SDS011;50714;49.208;5.364;2022-12-15T23:58:46;3.30;;;2.27;;
